LFBU/ANG METAR and TAF weather

Enter ICAO airport designator
Station Type Date Time Source
LFBU METAR 2020/09/27 17:30 UTC NOAA

LFBU 271730Z AUTO 30004KT 9999 OVC028 12/09 Q1014 NOSIG


Station Type Date Time Source
LFBU Decoded METAR 2020/09/27 17:30 UTC NOAA

Station name not available
Sep 27, 2020 - 01:30 PM EDT / 2020.09.27 1730 UTC
Wind: from the WNW (300 degrees) at 5 MPH (4 KT):0
Visibility: greater than 7 mile(s):0
Sky conditions: overcast
Temperature: 53 F (12 C)
Dew Point: 48 F (9 C)
Relative Humidity: 81%
Pressure (altimeter): 29.94 in. Hg (1014 hPa)
ob: LFBU 271730Z AUTO 30004KT 9999 OVC028 12/09 Q1014 NOSIG
cycle: 17

Station Type Date Time Source
LFBU TAF 2020/09/27 18:00 UTC NOAA

TAF LFBU 271700Z 2718/2818 30005KT 9999 OVC040 PROB30
TEMPO 2803/2806 OVC015

Example: see airport list